sensor_id;sensor_type;location;lat;lon;timestamp;P1;durP1;ratioP1;P2;durP2;ratioP2
47259;SDS011;32999;52.412;4.890;2023-02-08T00:01:40;25.65;;;10.82;;
47259;SDS011;32999;52.412;4.890;2023-02-08T00:06:43;25.38;;;10.93;;
47259;SDS011;32999;52.412;4.890;2023-02-08T00:11:46;24.38;;;10.93;;
47259;SDS011;32999;52.412;4.890;2023-02-08T00:16:47;27.27;;;12.55;;
47259;SDS011;32999;52.412;4.890;2023-02-08T00:21:51;24.65;;;12.13;;
47259;SDS011;32999;52.412;4.890;2023-02-08T00:26:52;20.42;;;9.65;;
47259;SDS011;32999;52.412;4.890;2023-02-08T00:31:54;22.90;;;9.52;;
47259;SDS011;32999;52.412;4.890;2023-02-08T00:36:58;17.65;;;9.32;;
47259;SDS011;32999;52.412;4.890;2023-02-08T00:42:00;26.33;;;10.10;;
47259;SDS011;32999;52.412;4.890;2023-02-08T00:47:02;18.88;;;8.93;;
47259;SDS011;32999;52.412;4.890;2023-02-08T00:52:05;20.42;;;10.05;;
47259;SDS011;32999;52.412;4.890;2023-02-08T00:57:07;18.03;;;9.13;;
47259;SDS011;32999;52.412;4.890;2023-02-08T01:02:09;22.55;;;9.50;;
47259;SDS011;32999;52.412;4.890;2023-02-08T01:07:13;21.40;;;10.00;;
47259;SDS011;32999;52.412;4.890;2023-02-08T01:12:15;19.38;;;8.77;;
47259;SDS011;32999;52.412;4.890;2023-02-08T01:17:29;15.73;;;8.30;;
47259;SDS011;32999;52.412;4.890;2023-02-08T01:22:32;19.33;;;9.45;;
47259;SDS011;32999;52.412;4.890;2023-02-08T01:27:34;17.80;;;8.50;;
47259;SDS011;32999;52.412;4.890;2023-02-08T01:32:36;20.88;;;9.00;;
47259;SDS011;32999;52.412;4.890;2023-02-08T01:37:39;15.15;;;7.40;;
47259;SDS011;32999;52.412;4.890;2023-02-08T01:42:41;21.55;;;8.10;;
47259;SDS011;32999;52.412;4.890;2023-02-08T01:47:59;16.80;;;8.43;;
47259;SDS011;32999;52.412;4.890;2023-02-08T01:53:08;13.68;;;7.97;;
47259;SDS011;32999;52.412;4.890;2023-02-08T01:58:11;18.85;;;8.68;;
47259;SDS011;32999;52.412;4.890;2023-02-08T02:03:14;15.52;;;8.75;;
47259;SDS011;32999;52.412;4.890;2023-02-08T02:08:20;17.97;;;8.70;;
47259;SDS011;32999;52.412;4.890;2023-02-08T02:13:23;18.58;;;9.90;;
47259;SDS011;32999;52.412;4.890;2023-02-08T02:18:27;16.53;;;7.67;;
47259;SDS011;32999;52.412;4.890;2023-02-08T02:23:45;16.90;;;8.52;;
47259;SDS011;32999;52.412;4.890;2023-02-08T02:29:21;14.43;;;7.95;;
47259;SDS011;32999;52.412;4.890;2023-02-08T02:34:56;16.85;;;7.85;;
47259;SDS011;32999;52.412;4.890;2023-02-08T02:40:08;16.63;;;8.55;;
47259;SDS011;32999;52.412;4.890;2023-02-08T02:45:17;15.93;;;8.38;;
47259;SDS011;32999;52.412;4.890;2023-02-08T02:50:27;14.60;;;6.78;;
47259;SDS011;32999;52.412;4.890;2023-02-08T02:55:34;17.80;;;8.65;;
47259;SDS011;32999;52.412;4.890;2023-02-08T03:00:40;18.02;;;8.32;;
47259;SDS011;32999;52.412;4.890;2023-02-08T03:05:43;12.13;;;7.05;;
47259;SDS011;32999;52.412;4.890;2023-02-08T03:10:49;16.30;;;8.32;;
47259;SDS011;32999;52.412;4.890;2023-02-08T03:16:05;20.20;;;8.45;;
47259;SDS011;32999;52.412;4.890;2023-02-08T03:21:18;13.15;;;7.97;;
47259;SDS011;32999;52.412;4.890;2023-02-08T03:26:27;14.38;;;8.32;;
47259;SDS011;32999;52.412;4.890;2023-02-08T03:31:37;22.63;;;10.60;;
47259;SDS011;32999;52.412;4.890;2023-02-08T03:36:47;16.20;;;8.00;;
47259;SDS011;32999;52.412;4.890;2023-02-08T03:41:53;17.13;;;9.02;;
47259;SDS011;32999;52.412;4.890;2023-02-08T03:46:59;17.23;;;10.48;;
47259;SDS011;32999;52.412;4.890;2023-02-08T03:52:07;21.10;;;9.57;;
47259;SDS011;32999;52.412;4.890;2023-02-08T03:57:18;15.82;;;8.60;;
47259;SDS011;32999;52.412;4.890;2023-02-08T04:02:51;17.45;;;10.02;;
47259;SDS011;32999;52.412;4.890;2023-02-08T04:07:57;15.35;;;8.50;;
47259;SDS011;32999;52.412;4.890;2023-02-08T04:12:59;19.30;;;8.98;;
47259;SDS011;32999;52.412;4.890;2023-02-08T04:18:01;16.02;;;8.70;;
47259;SDS011;32999;52.412;4.890;2023-02-08T04:23:04;18.35;;;9.45;;
47259;SDS011;32999;52.412;4.890;2023-02-08T04:28:06;15.25;;;9.10;;
47259;SDS011;32999;52.412;4.890;2023-02-08T04:33:08;15.98;;;8.98;;
47259;SDS011;32999;52.412;4.890;2023-02-08T04:38:13;14.30;;;8.10;;
47259;SDS011;32999;52.412;4.890;2023-02-08T04:43:15;17.48;;;9.65;;
47259;SDS011;32999;52.412;4.890;2023-02-08T04:48:17;15.85;;;9.65;;
47259;SDS011;32999;52.412;4.890;2023-02-08T04:53:21;16.40;;;9.25;;
47259;SDS011;32999;52.412;4.890;2023-02-08T04:58:23;13.25;;;8.30;;
47259;SDS011;32999;52.412;4.890;2023-02-08T05:03:25;16.00;;;9.30;;
47259;SDS011;32999;52.412;4.890;2023-02-08T05:08:28;17.60;;;8.50;;
47259;SDS011;32999;52.412;4.890;2023-02-08T05:13:29;15.40;;;8.07;;
47259;SDS011;32999;52.412;4.890;2023-02-08T05:18:31;17.67;;;9.25;;
47259;SDS011;32999;52.412;4.890;2023-02-08T05:23:35;16.40;;;8.77;;
47259;SDS011;32999;52.412;4.890;2023-02-08T05:28:37;15.40;;;9.07;;
47259;SDS011;32999;52.412;4.890;2023-02-08T05:33:39;16.48;;;10.05;;
47259;SDS011;32999;52.412;4.890;2023-02-08T05:38:42;16.70;;;8.45;;
47259;SDS011;32999;52.412;4.890;2023-02-08T05:43:44;17.23;;;9.38;;
47259;SDS011;32999;52.412;4.890;2023-02-08T05:48:46;15.48;;;8.80;;
47259;SDS011;32999;52.412;4.890;2023-02-08T05:53:49;15.55;;;8.88;;
47259;SDS011;32999;52.412;4.890;2023-02-08T05:58:51;18.67;;;9.13;;
47259;SDS011;32999;52.412;4.890;2023-02-08T06:03:52;15.82;;;8.60;;
47259;SDS011;32999;52.412;4.890;2023-02-08T06:08:56;16.73;;;8.52;;
47259;SDS011;32999;52.412;4.890;2023-02-08T06:13:57;16.42;;;8.50;;
47259;SDS011;32999;52.412;4.890;2023-02-08T06:18:59;13.55;;;7.68;;
47259;SDS011;32999;52.412;4.890;2023-02-08T06:24:03;15.10;;;7.65;;
47259;SDS011;32999;52.412;4.890;2023-02-08T06:29:05;14.52;;;7.63;;
47259;SDS011;32999;52.412;4.890;2023-02-08T06:34:07;14.02;;;8.10;;
47259;SDS011;32999;52.412;4.890;2023-02-08T06:39:11;16.95;;;8.05;;
47259;SDS011;32999;52.412;4.890;2023-02-08T06:44:12;16.10;;;7.80;;
47259;SDS011;32999;52.412;4.890;2023-02-08T06:49:16;17.60;;;7.75;;
47259;SDS011;32999;52.412;4.890;2023-02-08T06:54:19;15.15;;;7.22;;
47259;SDS011;32999;52.412;4.890;2023-02-08T06:59:21;14.35;;;8.18;;
47259;SDS011;32999;52.412;4.890;2023-02-08T07:04:22;14.45;;;7.95;;
47259;SDS011;32999;52.412;4.890;2023-02-08T07:09:25;15.13;;;7.05;;
47259;SDS011;32999;52.412;4.890;2023-02-08T07:14:27;16.45;;;7.45;;
47259;SDS011;32999;52.412;4.890;2023-02-08T07:19:29;11.93;;;7.15;;
47259;SDS011;32999;52.412;4.890;2023-02-08T07:24:32;11.02;;;6.80;;
47259;SDS011;32999;52.412;4.890;2023-02-08T07:29:35;12.75;;;7.28;;
47259;SDS011;32999;52.412;4.890;2023-02-08T07:34:37;16.40;;;7.43;;
47259;SDS011;32999;52.412;4.890;2023-02-08T07:39:41;13.65;;;7.80;;
47259;SDS011;32999;52.412;4.890;2023-02-08T07:44:43;12.45;;;7.13;;
47259;SDS011;32999;52.412;4.890;2023-02-08T07:49:45;19.45;;;8.27;;
47259;SDS011;32999;52.412;4.890;2023-02-08T07:54:48;17.33;;;7.82;;
47259;SDS011;32999;52.412;4.890;2023-02-08T07:59:50;18.23;;;8.10;;
47259;SDS011;32999;52.412;4.890;2023-02-08T08:04:51;13.88;;;7.20;;
47259;SDS011;32999;52.412;4.890;2023-02-08T08:09:55;14.50;;;7.75;;
47259;SDS011;32999;52.412;4.890;2023-02-08T08:14:56;14.70;;;7.65;;
47259;SDS011;32999;52.412;4.890;2023-02-08T08:19:58;12.15;;;7.20;;
47259;SDS011;32999;52.412;4.890;2023-02-08T08:25:01;11.40;;;7.45;;
47259;SDS011;32999;52.412;4.890;2023-02-08T08:30:04;12.63;;;7.10;;
47259;SDS011;32999;52.412;4.890;2023-02-08T08:35:06;12.93;;;7.07;;
47259;SDS011;32999;52.412;4.890;2023-02-08T08:40:24;14.68;;;8.05;;
47259;SDS011;32999;52.412;4.890;2023-02-08T08:45:26;13.15;;;7.32;;
47259;SDS011;32999;52.412;4.890;2023-02-08T08:50:28;12.57;;;6.93;;
47259;SDS011;32999;52.412;4.890;2023-02-08T08:55:32;12.40;;;7.57;;
47259;SDS011;32999;52.412;4.890;2023-02-08T09:00:33;12.57;;;6.93;;
47259;SDS011;32999;52.412;4.890;2023-02-08T09:05:35;14.88;;;7.68;;
47259;SDS011;32999;52.412;4.890;2023-02-08T09:10:39;13.70;;;7.15;;
47259;SDS011;32999;52.412;4.890;2023-02-08T09:21:45;10.93;;;6.35;;
47259;SDS011;32999;52.412;4.890;2023-02-08T09:26:54;9.55;;;5.88;;
47259;SDS011;32999;52.412;4.890;2023-02-08T09:32:31;9.45;;;5.45;;
47259;SDS011;32999;52.412;4.890;2023-02-08T09:37:34;9.43;;;6.13;;
47259;SDS011;32999;52.412;4.890;2023-02-08T10:13:01;15.32;;;7.03;;
47259;SDS011;32999;52.412;4.890;2023-02-08T10:18:42;15.07;;;7.03;;
47259;SDS011;32999;52.412;4.890;2023-02-08T10:24:23;14.65;;;7.32;;
47259;SDS011;32999;52.412;4.890;2023-02-08T11:05:55;9.25;;;5.18;;
47259;SDS011;32999;52.412;4.890;2023-02-08T11:11:01;8.75;;;4.80;;
47259;SDS011;32999;52.412;4.890;2023-02-08T11:16:20;9.45;;;5.65;;
47259;SDS011;32999;52.412;4.890;2023-02-08T11:21:29;7.57;;;4.30;;
47259;SDS011;32999;52.412;4.890;2023-02-08T11:27:28;7.32;;;4.07;;
47259;SDS011;32999;52.412;4.890;2023-02-08T11:33:13;9.15;;;4.72;;
47259;SDS011;32999;52.412;4.890;2023-02-08T11:38:29;10.00;;;4.63;;
47259;SDS011;32999;52.412;4.890;2023-02-08T11:43:34;8.43;;;5.32;;
47259;SDS011;32999;52.412;4.890;2023-02-08T11:49:14;9.48;;;4.53;;
47259;SDS011;32999;52.412;4.890;2023-02-08T12:13:09;9.02;;;4.72;;
47259;SDS011;32999;52.412;4.890;2023-02-08T12:49:02;6.60;;;3.92;;
47259;SDS011;32999;52.412;4.890;2023-02-08T13:04:18;6.60;;;3.30;;
47259;SDS011;32999;52.412;4.890;2023-02-08T13:12:40;5.88;;;3.90;;
47259;SDS011;32999;52.412;4.890;2023-02-08T13:17:50;6.60;;;3.55;;
47259;SDS011;32999;52.412;4.890;2023-02-08T13:23:46;8.98;;;3.22;;
47259;SDS011;32999;52.412;4.890;2023-02-08T13:28:53;6.47;;;2.70;;
47259;SDS011;32999;52.412;4.890;2023-02-08T13:33:56;5.65;;;3.38;;
47259;SDS011;32999;52.412;4.890;2023-02-08T13:39:30;6.45;;;3.05;;
47259;SDS011;32999;52.412;4.890;2023-02-08T13:44:37;6.82;;;3.15;;
47259;SDS011;32999;52.412;4.890;2023-02-08T13:54:53;5.43;;;3.05;;
47259;SDS011;32999;52.412;4.890;2023-02-08T15:03:25;6.40;;;3.20;;
47259;SDS011;32999;52.412;4.890;2023-02-08T15:13:28;6.23;;;3.70;;
47259;SDS011;32999;52.412;4.890;2023-02-08T15:19:19;6.40;;;3.60;;
47259;SDS011;32999;52.412;4.890;2023-02-08T15:24:58;11.10;;;4.45;;
47259;SDS011;32999;52.412;4.890;2023-02-08T15:41:33;6.45;;;3.75;;
47259;SDS011;32999;52.412;4.890;2023-02-08T16:09:44;9.70;;;5.03;;
47259;SDS011;32999;52.412;4.890;2023-02-08T16:15:48;9.82;;;5.47;;
47259;SDS011;32999;52.412;4.890;2023-02-08T16:52:00;12.52;;;5.65;;
